sensor_id;sensor_type;location;lat;lon;timestamp;P1;durP1;ratioP1;P2;durP2;ratioP2
70150;SDS011;57517;43.562;19.540;2023-03-13T00:01:07;17.92;;;12.48;;
70150;SDS011;57517;43.562;19.540;2023-03-13T00:03:39;19.52;;;12.45;;
70150;SDS011;57517;43.562;19.540;2023-03-13T00:06:05;16.45;;;9.77;;
70150;SDS011;57517;43.562;19.540;2023-03-13T00:08:31;16.15;;;11.63;;
70150;SDS011;57517;43.562;19.540;2023-03-13T00:11:00;20.08;;;12.35;;
70150;SDS011;57517;43.562;19.540;2023-03-13T00:13:31;19.65;;;13.52;;
70150;SDS011;57517;43.562;19.540;2023-03-13T00:16:15;21.55;;;14.65;;
70150;SDS011;57517;43.562;19.540;2023-03-13T00:18:48;23.55;;;14.23;;
70150;SDS011;57517;43.562;19.540;2023-03-13T00:21:15;18.60;;;12.98;;
70150;SDS011;57517;43.562;19.540;2023-03-13T00:23:43;15.65;;;12.05;;
70150;SDS011;57517;43.562;19.540;2023-03-13T00:26:10;17.20;;;10.90;;
70150;SDS011;57517;43.562;19.540;2023-03-13T00:28:38;17.85;;;11.00;;
70150;SDS011;57517;43.562;19.540;2023-03-13T00:31:06;16.20;;;11.80;;
70150;SDS011;57517;43.562;19.540;2023-03-13T00:33:43;20.63;;;12.27;;
70150;SDS011;57517;43.562;19.540;2023-03-13T00:36:11;20.80;;;13.77;;
70150;SDS011;57517;43.562;19.540;2023-03-13T00:38:39;18.85;;;13.45;;
70150;SDS011;57517;43.562;19.540;2023-03-13T00:41:12;20.70;;;13.73;;
70150;SDS011;57517;43.562;19.540;2023-03-13T00:43:40;24.92;;;18.23;;
70150;SDS011;57517;43.562;19.540;2023-03-13T00:46:07;24.75;;;16.77;;
70150;SDS011;57517;43.562;19.540;2023-03-13T00:48:33;22.20;;;14.43;;
70150;SDS011;57517;43.562;19.540;2023-03-13T00:51:00;16.60;;;12.82;;
70150;SDS011;57517;43.562;19.540;2023-03-13T00:53:27;18.63;;;11.98;;
70150;SDS011;57517;43.562;19.540;2023-03-13T00:55:56;17.98;;;12.23;;
70150;SDS011;57517;43.562;19.540;2023-03-13T00:58:23;15.05;;;11.90;;
70150;SDS011;57517;43.562;19.540;2023-03-13T01:00:50;16.58;;;11.70;;
70150;SDS011;57517;43.562;19.540;2023-03-13T01:03:16;13.80;;;10.90;;
70150;SDS011;57517;43.562;19.540;2023-03-13T01:05:42;16.00;;;10.23;;
70150;SDS011;57517;43.562;19.540;2023-03-13T01:08:08;13.98;;;9.02;;
70150;SDS011;57517;43.562;19.540;2023-03-13T01:10:34;13.52;;;9.10;;
70150;SDS011;57517;43.562;19.540;2023-03-13T01:13:00;18.50;;;12.75;;
70150;SDS011;57517;43.562;19.540;2023-03-13T01:15:26;18.65;;;12.32;;
70150;SDS011;57517;43.562;19.540;2023-03-13T01:17:51;15.00;;;10.00;;
70150;SDS011;57517;43.562;19.540;2023-03-13T01:20:17;18.92;;;12.30;;
70150;SDS011;57517;43.562;19.540;2023-03-13T01:22:43;15.30;;;11.23;;
70150;SDS011;57517;43.562;19.540;2023-03-13T01:25:08;11.50;;;8.20;;
70150;SDS011;57517;43.562;19.540;2023-03-13T01:27:34;13.55;;;9.75;;
70150;SDS011;57517;43.562;19.540;2023-03-13T01:30:00;13.55;;;9.82;;
70150;SDS011;57517;43.562;19.540;2023-03-13T01:32:25;16.95;;;11.90;;
70150;SDS011;57517;43.562;19.540;2023-03-13T01:34:51;17.45;;;11.40;;
70150;SDS011;57517;43.562;19.540;2023-03-13T01:37:17;14.85;;;11.23;;
70150;SDS011;57517;43.562;19.540;2023-03-13T01:39:42;16.98;;;10.82;;
70150;SDS011;57517;43.562;19.540;2023-03-13T01:42:08;14.95;;;9.15;;
70150;SDS011;57517;43.562;19.540;2023-03-13T01:44:50;12.52;;;7.75;;
70150;SDS011;57517;43.562;19.540;2023-03-13T01:47:20;10.35;;;7.38;;
70150;SDS011;57517;43.562;19.540;2023-03-13T01:49:46;11.10;;;7.78;;
70150;SDS011;57517;43.562;19.540;2023-03-13T01:57:21;12.07;;;8.35;;
70150;SDS011;57517;43.562;19.540;2023-03-13T01:59:58;13.82;;;8.10;;
70150;SDS011;57517;43.562;19.540;2023-03-13T02:02:36;13.15;;;8.20;;
70150;SDS011;57517;43.562;19.540;2023-03-13T02:05:04;12.52;;;8.05;;
70150;SDS011;57517;43.562;19.540;2023-03-13T02:07:45;14.25;;;9.68;;
70150;SDS011;57517;43.562;19.540;2023-03-13T02:10:14;10.18;;;7.30;;
70150;SDS011;57517;43.562;19.540;2023-03-13T02:12:42;13.23;;;6.80;;
70150;SDS011;57517;43.562;19.540;2023-03-13T02:17:37;13.23;;;9.20;;
70150;SDS011;57517;43.562;19.540;2023-03-13T02:20:05;12.10;;;8.88;;
70150;SDS011;57517;43.562;19.540;2023-03-13T02:27:51;13.15;;;9.55;;
70150;SDS011;57517;43.562;19.540;2023-03-13T02:30:19;15.23;;;10.20;;
70150;SDS011;57517;43.562;19.540;2023-03-13T02:32:45;21.65;;;13.50;;
70150;SDS011;57517;43.562;19.540;2023-03-13T02:35:12;16.50;;;11.90;;
70150;SDS011;57517;43.562;19.540;2023-03-13T02:37:41;15.02;;;9.77;;
70150;SDS011;57517;43.562;19.540;2023-03-13T02:40:11;13.35;;;8.80;;
70150;SDS011;57517;43.562;19.540;2023-03-13T02:42:41;13.52;;;9.82;;
70150;SDS011;57517;43.562;19.540;2023-03-13T02:45:09;14.32;;;9.45;;
70150;SDS011;57517;43.562;19.540;2023-03-13T02:47:37;14.85;;;9.05;;
70150;SDS011;57517;43.562;19.540;2023-03-13T02:50:03;11.93;;;8.30;;
70150;SDS011;57517;43.562;19.540;2023-03-13T02:52:30;13.50;;;8.50;;
70150;SDS011;57517;43.562;19.540;2023-03-13T02:55:21;13.55;;;8.68;;
70150;SDS011;57517;43.562;19.540;2023-03-13T02:57:56;10.27;;;7.68;;
70150;SDS011;57517;43.562;19.540;2023-03-13T03:00:22;13.35;;;8.57;;
70150;SDS011;57517;43.562;19.540;2023-03-13T03:02:51;13.70;;;8.05;;
70150;SDS011;57517;43.562;19.540;2023-03-13T03:05:18;9.65;;;7.65;;
70150;SDS011;57517;43.562;19.540;2023-03-13T03:07:44;12.60;;;7.95;;
70150;SDS011;57517;43.562;19.540;2023-03-13T03:10:10;14.13;;;9.73;;
70150;SDS011;57517;43.562;19.540;2023-03-13T03:12:36;12.77;;;8.95;;
70150;SDS011;57517;43.562;19.540;2023-03-13T03:15:02;12.90;;;9.50;;
70150;SDS011;57517;43.562;19.540;2023-03-13T03:17:31;12.18;;;7.80;;
70150;SDS011;57517;43.562;19.540;2023-03-13T03:19:56;13.55;;;8.10;;
70150;SDS011;57517;43.562;19.540;2023-03-13T03:22:22;12.43;;;7.65;;
70150;SDS011;57517;43.562;19.540;2023-03-13T03:24:48;13.00;;;9.43;;
70150;SDS011;57517;43.562;19.540;2023-03-13T03:27:13;15.07;;;9.82;;
70150;SDS011;57517;43.562;19.540;2023-03-13T03:29:39;22.13;;;12.63;;
70150;SDS011;57517;43.562;19.540;2023-03-13T03:32:05;14.50;;;10.10;;
70150;SDS011;57517;43.562;19.540;2023-03-13T03:34:31;16.42;;;10.90;;
70150;SDS011;57517;43.562;19.540;2023-03-13T03:36:57;15.93;;;10.25;;
70150;SDS011;57517;43.562;19.540;2023-03-13T03:39:23;17.17;;;10.10;;
70150;SDS011;57517;43.562;19.540;2023-03-13T03:41:49;15.70;;;9.20;;
70150;SDS011;57517;43.562;19.540;2023-03-13T03:44:14;12.73;;;8.77;;
70150;SDS011;57517;43.562;19.540;2023-03-13T03:46:40;12.80;;;8.52;;
70150;SDS011;57517;43.562;19.540;2023-03-13T03:49:06;15.77;;;10.75;;
70150;SDS011;57517;43.562;19.540;2023-03-13T03:51:31;20.85;;;15.77;;
70150;SDS011;57517;43.562;19.540;2023-03-13T03:53:57;18.67;;;13.95;;
70150;SDS011;57517;43.562;19.540;2023-03-13T03:56:23;15.90;;;12.30;;
70150;SDS011;57517;43.562;19.540;2023-03-13T03:58:49;10.95;;;7.97;;
70150;SDS011;57517;43.562;19.540;2023-03-13T04:01:14;10.82;;;8.10;;
70150;SDS011;57517;43.562;19.540;2023-03-13T04:03:40;12.40;;;9.50;;
70150;SDS011;57517;43.562;19.540;2023-03-13T04:06:06;16.77;;;11.02;;
70150;SDS011;57517;43.562;19.540;2023-03-13T04:08:33;11.18;;;8.57;;
70150;SDS011;57517;43.562;19.540;2023-03-13T04:10:59;10.98;;;8.15;;
70150;SDS011;57517;43.562;19.540;2023-03-13T04:13:25;16.77;;;11.75;;
70150;SDS011;57517;43.562;19.540;2023-03-13T04:15:51;16.83;;;11.80;;
70150;SDS011;57517;43.562;19.540;2023-03-13T04:18:17;15.27;;;11.52;;
70150;SDS011;57517;43.562;19.540;2023-03-13T04:20:43;13.95;;;9.88;;
70150;SDS011;57517;43.562;19.540;2023-03-13T04:23:09;10.77;;;6.85;;
70150;SDS011;57517;43.562;19.540;2023-03-13T04:25:35;10.50;;;7.30;;
70150;SDS011;57517;43.562;19.540;2023-03-13T04:28:01;11.13;;;7.88;;
70150;SDS011;57517;43.562;19.540;2023-03-13T04:30:27;18.90;;;14.70;;
70150;SDS011;57517;43.562;19.540;2023-03-13T04:32:52;15.05;;;9.85;;
70150;SDS011;57517;43.562;19.540;2023-03-13T04:35:18;10.77;;;7.82;;
70150;SDS011;57517;43.562;19.540;2023-03-13T04:37:44;12.18;;;7.50;;
70150;SDS011;57517;43.562;19.540;2023-03-13T04:40:10;10.73;;;7.25;;
70150;SDS011;57517;43.562;19.540;2023-03-13T04:42:37;13.25;;;7.90;;
70150;SDS011;57517;43.562;19.540;2023-03-13T04:45:04;14.85;;;11.18;;
70150;SDS011;57517;43.562;19.540;2023-03-13T04:47:30;14.10;;;11.18;;
70150;SDS011;57517;43.562;19.540;2023-03-13T04:49:56;12.77;;;9.10;;
70150;SDS011;57517;43.562;19.540;2023-03-13T04:52:21;15.40;;;9.65;;
70150;SDS011;57517;43.562;19.540;2023-03-13T04:54:47;11.35;;;8.45;;
70150;SDS011;57517;43.562;19.540;2023-03-13T04:57:15;12.20;;;8.80;;
70150;SDS011;57517;43.562;19.540;2023-03-13T04:59:41;14.15;;;9.40;;
70150;SDS011;57517;43.562;19.540;2023-03-13T05:02:08;15.80;;;9.43;;
70150;SDS011;57517;43.562;19.540;2023-03-13T05:04:36;19.25;;;14.07;;
70150;SDS011;57517;43.562;19.540;2023-03-13T05:07:02;15.55;;;9.80;;
70150;SDS011;57517;43.562;19.540;2023-03-13T05:09:27;13.15;;;8.10;;
70150;SDS011;57517;43.562;19.540;2023-03-13T05:11:53;13.05;;;8.82;;
70150;SDS011;57517;43.562;19.540;2023-03-13T05:14:19;16.65;;;9.48;;
70150;SDS011;57517;43.562;19.540;2023-03-13T05:16:45;18.73;;;11.98;;
70150;SDS011;57517;43.562;19.540;2023-03-13T05:19:11;17.38;;;11.18;;
70150;SDS011;57517;43.562;19.540;2023-03-13T05:21:37;19.98;;;14.45;;
70150;SDS011;57517;43.562;19.540;2023-03-13T05:24:03;32.17;;;19.20;;
70150;SDS011;57517;43.562;19.540;2023-03-13T05:26:29;31.23;;;19.95;;
70150;SDS011;57517;43.562;19.540;2023-03-13T05:28:54;29.05;;;18.30;;
70150;SDS011;57517;43.562;19.540;2023-03-13T05:31:20;35.38;;;23.50;;
70150;SDS011;57517;43.562;19.540;2023-03-13T05:33:46;43.45;;;25.73;;
70150;SDS011;57517;43.562;19.540;2023-03-13T05:36:11;40.92;;;24.85;;
70150;SDS011;57517;43.562;19.540;2023-03-13T05:38:37;26.95;;;18.33;;
70150;SDS011;57517;43.562;19.540;2023-03-13T05:41:03;17.05;;;10.52;;
70150;SDS011;57517;43.562;19.540;2023-03-13T05:43:29;18.05;;;11.63;;
70150;SDS011;57517;43.562;19.540;2023-03-13T05:45:54;18.52;;;12.43;;
70150;SDS011;57517;43.562;19.540;2023-03-13T05:48:20;20.15;;;12.63;;
70150;SDS011;57517;43.562;19.540;2023-03-13T05:50:46;22.02;;;15.68;;
70150;SDS011;57517;43.562;19.540;2023-03-13T05:53:11;24.95;;;15.65;;
70150;SDS011;57517;43.562;19.540;2023-03-13T05:55:37;20.90;;;15.73;;
70150;SDS011;57517;43.562;19.540;2023-03-13T05:58:03;27.00;;;18.77;;
70150;SDS011;57517;43.562;19.540;2023-03-13T06:00:29;31.73;;;21.92;;
70150;SDS011;57517;43.562;19.540;2023-03-13T06:02:55;26.58;;;17.85;;
70150;SDS011;57517;43.562;19.540;2023-03-13T06:05:20;23.25;;;15.63;;
70150;SDS011;57517;43.562;19.540;2023-03-13T06:07:48;33.90;;;21.88;;
70150;SDS011;57517;43.562;19.540;2023-03-13T06:10:14;23.35;;;18.65;;
70150;SDS011;57517;43.562;19.540;2023-03-13T06:12:40;28.63;;;19.83;;
70150;SDS011;57517;43.562;19.540;2023-03-13T06:15:06;32.20;;;23.35;;
70150;SDS011;57517;43.562;19.540;2023-03-13T06:17:34;38.78;;;29.08;;
70150;SDS011;57517;43.562;19.540;2023-03-13T06:20:00;39.10;;;28.02;;
70150;SDS011;57517;43.562;19.540;2023-03-13T06:22:28;21.30;;;16.30;;
70150;SDS011;57517;43.562;19.540;2023-03-13T06:24:54;23.25;;;17.50;;
70150;SDS011;57517;43.562;19.540;2023-03-13T06:27:21;15.30;;;11.38;;
70150;SDS011;57517;43.562;19.540;2023-03-13T06:29:46;15.65;;;11.32;;
70150;SDS011;57517;43.562;19.540;2023-03-13T06:32:12;27.17;;;17.92;;
70150;SDS011;57517;43.562;19.540;2023-03-13T06:34:38;80.68;;;52.10;;
70150;SDS011;57517;43.562;19.540;2023-03-13T06:37:04;49.03;;;37.50;;
70150;SDS011;57517;43.562;19.540;2023-03-13T06:39:29;25.38;;;21.08;;
70150;SDS011;57517;43.562;19.540;2023-03-13T06:41:55;18.52;;;14.90;;
70150;SDS011;57517;43.562;19.540;2023-03-13T06:44:21;22.52;;;18.80;;
70150;SDS011;57517;43.562;19.540;2023-03-13T06:46:46;21.80;;;15.38;;
70150;SDS011;57517;43.562;19.540;2023-03-13T06:49:12;35.53;;;28.90;;
70150;SDS011;57517;43.562;19.540;2023-03-13T06:51:38;25.40;;;18.35;;
70150;SDS011;57517;43.562;19.540;2023-03-13T06:54:03;26.77;;;13.63;;
70150;SDS011;57517;43.562;19.540;2023-03-13T06:56:29;22.20;;;13.55;;
70150;SDS011;57517;43.562;19.540;2023-03-13T06:58:56;99.40;;;71.00;;
70150;SDS011;57517;43.562;19.540;2023-03-13T07:01:22;83.35;;;65.10;;
70150;SDS011;57517;43.562;19.540;2023-03-13T07:03:48;74.47;;;58.50;;
70150;SDS011;57517;43.562;19.540;2023-03-13T07:06:14;263.75;;;235.93;;
70150;SDS011;57517;43.562;19.540;2023-03-13T07:08:41;37.35;;;32.85;;
70150;SDS011;57517;43.562;19.540;2023-03-13T07:11:09;28.98;;;25.15;;
70150;SDS011;57517;43.562;19.540;2023-03-13T07:13:37;34.47;;;30.33;;
70150;SDS011;57517;43.562;19.540;2023-03-13T07:16:03;31.45;;;28.35;;
70150;SDS011;57517;43.562;19.540;2023-03-13T07:18:31;31.08;;;26.50;;
70150;SDS011;57517;43.562;19.540;2023-03-13T07:20:58;34.15;;;28.75;;
70150;SDS011;57517;43.562;19.540;2023-03-13T07:23:25;42.05;;;36.55;;
70150;SDS011;57517;43.562;19.540;2023-03-13T07:25:56;24.75;;;22.08;;
70150;SDS011;57517;43.562;19.540;2023-03-13T07:28:25;28.52;;;24.60;;
70150;SDS011;57517;43.562;19.540;2023-03-13T07:30:51;23.00;;;20.15;;
70150;SDS011;57517;43.562;19.540;2023-03-13T07:33:18;26.48;;;23.65;;
70150;SDS011;57517;43.562;19.540;2023-03-13T07:35:50;14.90;;;13.40;;
70150;SDS011;57517;43.562;19.540;2023-03-13T07:38:17;13.25;;;11.95;;
70150;SDS011;57517;43.562;19.540;2023-03-13T07:40:47;14.43;;;12.93;;
70150;SDS011;57517;43.562;19.540;2023-03-13T07:43:17;15.25;;;13.73;;
70150;SDS011;57517;43.562;19.540;2023-03-13T07:45:56;12.95;;;11.50;;
70150;SDS011;57517;43.562;19.540;2023-03-13T07:48:39;16.05;;;14.40;;
70150;SDS011;57517;43.562;19.540;2023-03-13T07:51:07;15.52;;;13.93;;
70150;SDS011;57517;43.562;19.540;2023-03-13T07:53:36;17.05;;;15.20;;
70150;SDS011;57517;43.562;19.540;2023-03-13T07:56:03;14.93;;;13.43;;
70150;SDS011;57517;43.562;19.540;2023-03-13T07:58:34;16.50;;;12.88;;
70150;SDS011;57517;43.562;19.540;2023-03-13T08:01:11;16.42;;;14.77;;
70150;SDS011;57517;43.562;19.540;2023-03-13T08:06:15;14.23;;;12.93;;
70150;SDS011;57517;43.562;19.540;2023-03-13T08:08:43;16.58;;;14.68;;
70150;SDS011;57517;43.562;19.540;2023-03-13T08:11:11;16.90;;;15.00;;
70150;SDS011;57517;43.562;19.540;2023-03-13T08:13:41;19.13;;;17.20;;
70150;SDS011;57517;43.562;19.540;2023-03-13T08:18:35;15.10;;;13.57;;
70150;SDS011;57517;43.562;19.540;2023-03-13T08:21:02;10.85;;;9.75;;
70150;SDS011;57517;43.562;19.540;2023-03-13T08:23:30;11.57;;;10.48;;
70150;SDS011;57517;43.562;19.540;2023-03-13T08:26:00;11.48;;;9.25;;
70150;SDS011;57517;43.562;19.540;2023-03-13T08:28:44;8.77;;;7.57;;
70150;SDS011;57517;43.562;19.540;2023-03-13T08:33:43;9.75;;;7.97;;
70150;SDS011;57517;43.562;19.540;2023-03-13T08:36:29;8.30;;;7.45;;
70150;SDS011;57517;43.562;19.540;2023-03-13T08:38:58;21.25;;;19.35;;
70150;SDS011;57517;43.562;19.540;2023-03-13T08:41:27;13.68;;;12.27;;
70150;SDS011;57517;43.562;19.540;2023-03-13T08:43:54;11.13;;;10.07;;
70150;SDS011;57517;43.562;19.540;2023-03-13T08:46:21;9.80;;;8.43;;
70150;SDS011;57517;43.562;19.540;2023-03-13T08:48:48;10.82;;;9.77;;
70150;SDS011;57517;43.562;19.540;2023-03-13T08:51:15;10.50;;;9.50;;
70150;SDS011;57517;43.562;19.540;2023-03-13T08:53:42;8.82;;;7.47;;
70150;SDS011;57517;43.562;19.540;2023-03-13T08:56:09;10.23;;;9.10;;
70150;SDS011;57517;43.562;19.540;2023-03-13T08:58:36;10.05;;;9.05;;
70150;SDS011;57517;43.562;19.540;2023-03-13T09:01:03;9.93;;;8.45;;
70150;SDS011;57517;43.562;19.540;2023-03-13T09:03:30;9.95;;;8.95;;
70150;SDS011;57517;43.562;19.540;2023-03-13T09:05:57;13.82;;;12.52;;
70150;SDS011;57517;43.562;19.540;2023-03-13T09:08:23;14.30;;;12.90;;
70150;SDS011;57517;43.562;19.540;2023-03-13T09:10:56;9.10;;;8.18;;
70150;SDS011;57517;43.562;19.540;2023-03-13T09:13:22;13.43;;;11.35;;
70150;SDS011;57517;43.562;19.540;2023-03-13T09:15:55;12.18;;;10.48;;
70150;SDS011;57517;43.562;19.540;2023-03-13T09:18:22;12.88;;;11.57;;
70150;SDS011;57517;43.562;19.540;2023-03-13T09:20:48;10.85;;;9.52;;
70150;SDS011;57517;43.562;19.540;2023-03-13T09:23:14;7.97;;;7.15;;
70150;SDS011;57517;43.562;19.540;2023-03-13T09:25:40;12.35;;;11.00;;
70150;SDS011;57517;43.562;19.540;2023-03-13T09:28:06;9.90;;;8.90;;
70150;SDS011;57517;43.562;19.540;2023-03-13T09:30:31;7.53;;;5.80;;
70150;SDS011;57517;43.562;19.540;2023-03-13T09:32:57;6.00;;;5.25;;
70150;SDS011;57517;43.562;19.540;2023-03-13T09:35:23;5.53;;;4.55;;
70150;SDS011;57517;43.562;19.540;2023-03-13T09:37:49;6.65;;;4.32;;
70150;SDS011;57517;43.562;19.540;2023-03-13T09:40:16;7.28;;;5.38;;
70150;SDS011;57517;43.562;19.540;2023-03-13T09:42:48;6.78;;;4.50;;
70150;SDS011;57517;43.562;19.540;2023-03-13T09:45:30;5.50;;;4.97;;
70150;SDS011;57517;43.562;19.540;2023-03-13T09:48:45;5.80;;;5.30;;
70150;SDS011;57517;43.562;19.540;2023-03-13T09:50:46;5.40;;;4.03;;
70150;SDS011;57517;43.562;19.540;2023-03-13T09:53:22;6.05;;;4.72;;
70150;SDS011;57517;43.562;19.540;2023-03-13T09:55:50;6.40;;;4.20;;
70150;SDS011;57517;43.562;19.540;2023-03-13T09:58:18;5.00;;;3.45;;
70150;SDS011;57517;43.562;19.540;2023-03-13T10:01:05;6.65;;;4.13;;
70150;SDS011;57517;43.562;19.540;2023-03-13T10:03:44;4.75;;;3.42;;
70150;SDS011;57517;43.562;19.540;2023-03-13T10:06:20;6.55;;;4.28;;
70150;SDS011;57517;43.562;19.540;2023-03-13T10:08:48;7.88;;;4.45;;
70150;SDS011;57517;43.562;19.540;2023-03-13T10:11:27;9.10;;;5.75;;
70150;SDS011;57517;43.562;19.540;2023-03-13T10:14:04;11.18;;;6.85;;
70150;SDS011;57517;43.562;19.540;2023-03-13T10:16:33;11.50;;;8.43;;
70150;SDS011;57517;43.562;19.540;2023-03-13T10:19:13;6.85;;;4.82;;
70150;SDS011;57517;43.562;19.540;2023-03-13T10:21:42;10.15;;;8.60;;
70150;SDS011;57517;43.562;19.540;2023-03-13T10:24:21;6.78;;;5.53;;
70150;SDS011;57517;43.562;19.540;2023-03-13T10:26:55;7.55;;;5.70;;
70150;SDS011;57517;43.562;19.540;2023-03-13T10:29:22;6.47;;;4.38;;
70150;SDS011;57517;43.562;19.540;2023-03-13T10:32:00;10.02;;;6.10;;
70150;SDS011;57517;43.562;19.540;2023-03-13T10:37:28;5.47;;;4.03;;
70150;SDS011;57517;43.562;19.540;2023-03-13T10:40:09;5.70;;;4.45;;
70150;SDS011;57517;43.562;19.540;2023-03-13T10:42:41;7.80;;;5.15;;
70150;SDS011;57517;43.562;19.540;2023-03-13T10:45:12;6.10;;;4.85;;
70150;SDS011;57517;43.562;19.540;2023-03-13T10:47:40;4.45;;;3.42;;
70150;SDS011;57517;43.562;19.540;2023-03-13T10:50:06;5.82;;;3.28;;
70150;SDS011;57517;43.562;19.540;2023-03-13T10:55:09;7.30;;;5.00;;
70150;SDS011;57517;43.562;19.540;2023-03-13T10:57:37;4.78;;;3.60;;
70150;SDS011;57517;43.562;19.540;2023-03-13T11:03:12;5.85;;;4.30;;
70150;SDS011;57517;43.562;19.540;2023-03-13T11:05:41;7.50;;;4.97;;
70150;SDS011;57517;43.562;19.540;2023-03-13T11:08:17;6.47;;;4.30;;
70150;SDS011;57517;43.562;19.540;2023-03-13T11:10:55;6.50;;;4.13;;
70150;SDS011;57517;43.562;19.540;2023-03-13T11:13:26;7.78;;;3.67;;
70150;SDS011;57517;43.562;19.540;2023-03-13T11:16:09;5.30;;;3.90;;
70150;SDS011;57517;43.562;19.540;2023-03-13T11:21:43;7.32;;;4.82;;
70150;SDS011;57517;43.562;19.540;2023-03-13T11:27:13;6.78;;;4.20;;
70150;SDS011;57517;43.562;19.540;2023-03-13T11:30:00;10.18;;;4.90;;
70150;SDS011;57517;43.562;19.540;2023-03-13T11:32:59;5.85;;;3.00;;
70150;SDS011;57517;43.562;19.540;2023-03-13T11:38:53;6.28;;;3.70;;
70150;SDS011;57517;43.562;19.540;2023-03-13T11:49:33;10.20;;;5.88;;
70150;SDS011;57517;43.562;19.540;2023-03-13T12:00:28;7.00;;;4.88;;
70150;SDS011;57517;43.562;19.540;2023-03-13T12:05:43;5.85;;;4.50;;
70150;SDS011;57517;43.562;19.540;2023-03-13T12:08:17;9.93;;;4.65;;
70150;SDS011;57517;43.562;19.540;2023-03-13T12:11:26;7.97;;;4.93;;
70150;SDS011;57517;43.562;19.540;2023-03-13T12:16:50;8.10;;;5.15;;
70150;SDS011;57517;43.562;19.540;2023-03-13T12:19:22;6.53;;;5.35;;
70150;SDS011;57517;43.562;19.540;2023-03-13T12:21:55;9.25;;;6.55;;
70150;SDS011;57517;43.562;19.540;2023-03-13T12:24:39;8.95;;;6.15;;
70150;SDS011;57517;43.562;19.540;2023-03-13T12:27:12;13.63;;;10.45;;
70150;SDS011;57517;43.562;19.540;2023-03-13T12:29:46;20.38;;;14.00;;
70150;SDS011;57517;43.562;19.540;2023-03-13T12:32:26;11.13;;;5.72;;
70150;SDS011;57517;43.562;19.540;2023-03-13T12:37:33;10.05;;;6.22;;
70150;SDS011;57517;43.562;19.540;2023-03-13T12:43:09;8.68;;;6.28;;
70150;SDS011;57517;43.562;19.540;2023-03-13T12:51:26;7.30;;;5.57;;
70150;SDS011;57517;43.562;19.540;2023-03-13T12:59:39;8.43;;;5.05;;
70150;SDS011;57517;43.562;19.540;2023-03-13T13:02:30;7.47;;;4.38;;
70150;SDS011;57517;43.562;19.540;2023-03-13T13:04:58;6.28;;;3.60;;
70150;SDS011;57517;43.562;19.540;2023-03-13T13:07:33;7.40;;;3.95;;
70150;SDS011;57517;43.562;19.540;2023-03-13T13:12:39;6.93;;;4.30;;
70150;SDS011;57517;43.562;19.540;2023-03-13T13:17:54;7.85;;;5.68;;
70150;SDS011;57517;43.562;19.540;2023-03-13T13:23:20;8.30;;;5.65;;
70150;SDS011;57517;43.562;19.540;2023-03-13T13:25:48;8.63;;;5.05;;
70150;SDS011;57517;43.562;19.540;2023-03-13T13:30:50;8.48;;;5.75;;
70150;SDS011;57517;43.562;19.540;2023-03-13T13:38:33;8.07;;;6.18;;
70150;SDS011;57517;43.562;19.540;2023-03-13T13:46:22;8.70;;;6.20;;
70150;SDS011;57517;43.562;19.540;2023-03-13T13:51:30;7.10;;;4.70;;
70150;SDS011;57517;43.562;19.540;2023-03-13T14:01:46;11.65;;;6.93;;
70150;SDS011;57517;43.562;19.540;2023-03-13T14:04:30;9.68;;;7.70;;
70150;SDS011;57517;43.562;19.540;2023-03-13T14:07:00;14.20;;;8.07;;
70150;SDS011;57517;43.562;19.540;2023-03-13T14:09:32;15.15;;;9.35;;
70150;SDS011;57517;43.562;19.540;2023-03-13T14:11:59;15.02;;;10.02;;
70150;SDS011;57517;43.562;19.540;2023-03-13T14:14:25;8.57;;;6.97;;
70150;SDS011;57517;43.562;19.540;2023-03-13T14:16:51;8.48;;;5.93;;
70150;SDS011;57517;43.562;19.540;2023-03-13T14:19:40;11.52;;;6.93;;
70150;SDS011;57517;43.562;19.540;2023-03-13T14:22:10;7.57;;;5.97;;
70150;SDS011;57517;43.562;19.540;2023-03-13T14:24:38;10.77;;;6.60;;
70150;SDS011;57517;43.562;19.540;2023-03-13T14:27:14;9.93;;;6.97;;
70150;SDS011;57517;43.562;19.540;2023-03-13T14:29:41;11.55;;;7.50;;
70150;SDS011;57517;43.562;19.540;2023-03-13T14:32:24;9.65;;;6.95;;
70150;SDS011;57517;43.562;19.540;2023-03-13T14:34:50;10.48;;;6.50;;
70150;SDS011;57517;43.562;19.540;2023-03-13T14:37:35;11.85;;;7.93;;
70150;SDS011;57517;43.562;19.540;2023-03-13T14:40:18;12.20;;;7.75;;
70150;SDS011;57517;43.562;19.540;2023-03-13T14:42:53;11.35;;;7.07;;
70150;SDS011;57517;43.562;19.540;2023-03-13T14:45:25;12.18;;;8.13;;
70150;SDS011;57517;43.562;19.540;2023-03-13T14:47:54;13.35;;;9.43;;
70150;SDS011;57517;43.562;19.540;2023-03-13T14:50:29;11.48;;;7.85;;
70150;SDS011;57517;43.562;19.540;2023-03-13T14:53:02;18.33;;;13.48;;
70150;SDS011;57517;43.562;19.540;2023-03-13T14:55:35;24.90;;;17.83;;
70150;SDS011;57517;43.562;19.540;2023-03-13T15:00:51;42.55;;;31.38;;
70150;SDS011;57517;43.562;19.540;2023-03-13T15:03:19;31.25;;;21.23;;
70150;SDS011;57517;43.562;19.540;2023-03-13T15:06:13;19.48;;;15.32;;
70150;SDS011;57517;43.562;19.540;2023-03-13T15:08:49;22.45;;;14.65;;
70150;SDS011;57517;43.562;19.540;2023-03-13T15:11:38;18.92;;;12.75;;
70150;SDS011;57517;43.562;19.540;2023-03-13T15:16:57;24.63;;;16.23;;
70150;SDS011;57517;43.562;19.540;2023-03-13T15:19:22;16.90;;;12.30;;
70150;SDS011;57517;43.562;19.540;2023-03-13T15:21:51;18.35;;;13.75;;
70150;SDS011;57517;43.562;19.540;2023-03-13T15:24:18;40.17;;;25.77;;
70150;SDS011;57517;43.562;19.540;2023-03-13T15:26:44;56.17;;;37.42;;
70150;SDS011;57517;43.562;19.540;2023-03-13T15:29:10;58.33;;;41.28;;
70150;SDS011;57517;43.562;19.540;2023-03-13T15:31:36;68.25;;;41.95;;
70150;SDS011;57517;43.562;19.540;2023-03-13T15:34:02;74.30;;;50.38;;
70150;SDS011;57517;43.562;19.540;2023-03-13T15:36:28;68.20;;;51.03;;
70150;SDS011;57517;43.562;19.540;2023-03-13T15:38:55;78.68;;;51.53;;
70150;SDS011;57517;43.562;19.540;2023-03-13T15:41:21;99.40;;;57.78;;
70150;SDS011;57517;43.562;19.540;2023-03-13T15:43:48;96.47;;;60.28;;
70150;SDS011;57517;43.562;19.540;2023-03-13T15:46:19;96.88;;;62.72;;
70150;SDS011;57517;43.562;19.540;2023-03-13T15:48:45;85.97;;;58.42;;
70150;SDS011;57517;43.562;19.540;2023-03-13T15:51:12;82.22;;;53.60;;
70150;SDS011;57517;43.562;19.540;2023-03-13T15:53:40;82.18;;;51.03;;
70150;SDS011;57517;43.562;19.540;2023-03-13T15:56:11;61.60;;;39.53;;
70150;SDS011;57517;43.562;19.540;2023-03-13T15:58:42;56.42;;;35.28;;
70150;SDS011;57517;43.562;19.540;2023-03-13T16:01:10;58.45;;;37.20;;
70150;SDS011;57517;43.562;19.540;2023-03-13T16:03:37;69.10;;;51.63;;
70150;SDS011;57517;43.562;19.540;2023-03-13T16:06:09;60.35;;;41.65;;
70150;SDS011;57517;43.562;19.540;2023-03-13T16:08:41;57.40;;;37.30;;
70150;SDS011;57517;43.562;19.540;2023-03-13T16:11:08;51.67;;;36.13;;
70150;SDS011;57517;43.562;19.540;2023-03-13T16:13:36;77.80;;;53.08;;
70150;SDS011;57517;43.562;19.540;2023-03-13T16:16:04;94.57;;;75.88;;
70150;SDS011;57517;43.562;19.540;2023-03-13T16:18:41;98.13;;;76.43;;
70150;SDS011;57517;43.562;19.540;2023-03-13T16:21:07;71.32;;;47.38;;
70150;SDS011;57517;43.562;19.540;2023-03-13T16:23:36;79.90;;;53.58;;
70150;SDS011;57517;43.562;19.540;2023-03-13T16:26:02;70.45;;;48.30;;